sensor_id;sensor_type;location;lat;lon;timestamp;P1;durP1;ratioP1;P2;durP2;ratioP2
64297;SDS011;50639;53.270;7.956;2023-07-24T00:00:44;11.52;;;5.53;;
64297;SDS011;50639;53.270;7.956;2023-07-24T00:03:09;8.40;;;5.40;;
64297;SDS011;50639;53.270;7.956;2023-07-24T00:05:34;8.32;;;5.40;;
64297;SDS011;50639;53.270;7.956;2023-07-24T00:08:00;6.88;;;5.45;;
64297;SDS011;50639;53.270;7.956;2023-07-24T00:10:25;10.48;;;5.45;;
64297;SDS011;50639;53.270;7.956;2023-07-24T00:12:51;9.77;;;5.70;;
64297;SDS011;50639;53.270;7.956;2023-07-24T00:15:16;10.07;;;5.93;;
64297;SDS011;50639;53.270;7.956;2023-07-24T00:17:41;8.98;;;6.00;;
64297;SDS011;50639;53.270;7.956;2023-07-24T00:20:07;9.75;;;6.22;;
64297;SDS011;50639;53.270;7.956;2023-07-24T00:22:33;10.05;;;6.00;;
64297;SDS011;50639;53.270;7.956;2023-07-24T00:24:58;9.40;;;5.38;;
64297;SDS011;50639;53.270;7.956;2023-07-24T00:27:23;9.67;;;5.83;;
64297;SDS011;50639;53.270;7.956;2023-07-24T00:29:49;10.52;;;6.40;;
64297;SDS011;50639;53.270;7.956;2023-07-24T00:32:16;8.77;;;5.93;;
64297;SDS011;50639;53.270;7.956;2023-07-24T00:34:41;10.07;;;6.25;;
64297;SDS011;50639;53.270;7.956;2023-07-24T00:37:07;9.65;;;5.68;;
64297;SDS011;50639;53.270;7.956;2023-07-24T00:39:32;9.15;;;6.10;;
64297;SDS011;50639;53.270;7.956;2023-07-24T00:41:57;9.57;;;6.10;;
64297;SDS011;50639;53.270;7.956;2023-07-24T00:44:23;7.63;;;5.60;;
64297;SDS011;50639;53.270;7.956;2023-07-24T00:46:48;9.33;;;5.60;;
64297;SDS011;50639;53.270;7.956;2023-07-24T00:49:14;8.75;;;5.85;;
64297;SDS011;50639;53.270;7.956;2023-07-24T00:51:39;12.93;;;6.60;;
64297;SDS011;50639;53.270;7.956;2023-07-24T00:54:05;10.18;;;6.38;;
64297;SDS011;50639;53.270;7.956;2023-07-24T00:56:31;9.60;;;5.40;;
64297;SDS011;50639;53.270;7.956;2023-07-24T00:58:57;10.00;;;5.90;;
64297;SDS011;50639;53.270;7.956;2023-07-24T01:01:22;9.32;;;6.03;;
64297;SDS011;50639;53.270;7.956;2023-07-24T01:03:49;9.73;;;6.00;;
64297;SDS011;50639;53.270;7.956;2023-07-24T01:06:14;9.35;;;5.60;;
64297;SDS011;50639;53.270;7.956;2023-07-24T01:08:40;8.60;;;6.07;;
64297;SDS011;50639;53.270;7.956;2023-07-24T01:11:09;9.73;;;6.20;;
64297;SDS011;50639;53.270;7.956;2023-07-24T01:13:39;9.95;;;6.05;;
64297;SDS011;50639;53.270;7.956;2023-07-24T01:16:15;9.05;;;6.13;;
64297;SDS011;50639;53.270;7.956;2023-07-24T01:21:08;8.75;;;5.53;;
64297;SDS011;50639;53.270;7.956;2023-07-24T01:23:44;7.18;;;5.32;;
64297;SDS011;50639;53.270;7.956;2023-07-24T01:26:10;7.90;;;5.50;;
64297;SDS011;50639;53.270;7.956;2023-07-24T01:28:36;8.50;;;5.60;;
64297;SDS011;50639;53.270;7.956;2023-07-24T01:31:01;8.77;;;5.83;;
64297;SDS011;50639;53.270;7.956;2023-07-24T01:33:26;8.38;;;5.78;;
64297;SDS011;50639;53.270;7.956;2023-07-24T01:35:57;10.65;;;5.85;;
64297;SDS011;50639;53.270;7.956;2023-07-24T01:38:25;10.85;;;5.53;;
64297;SDS011;50639;53.270;7.956;2023-07-24T01:40:54;9.15;;;6.00;;
64297;SDS011;50639;53.270;7.956;2023-07-24T01:43:20;8.68;;;5.60;;
64297;SDS011;50639;53.270;7.956;2023-07-24T01:45:45;10.63;;;6.05;;
64297;SDS011;50639;53.270;7.956;2023-07-24T01:48:11;9.38;;;6.28;;
64297;SDS011;50639;53.270;7.956;2023-07-24T01:50:36;8.38;;;5.63;;
64297;SDS011;50639;53.270;7.956;2023-07-24T01:53:02;10.75;;;5.97;;
64297;SDS011;50639;53.270;7.956;2023-07-24T01:55:27;8.52;;;5.82;;
64297;SDS011;50639;53.270;7.956;2023-07-24T01:57:53;9.07;;;6.68;;
64297;SDS011;50639;53.270;7.956;2023-07-24T02:00:18;8.63;;;6.53;;
64297;SDS011;50639;53.270;7.956;2023-07-24T02:02:43;9.85;;;6.68;;
64297;SDS011;50639;53.270;7.956;2023-07-24T02:05:09;10.70;;;6.25;;
64297;SDS011;50639;53.270;7.956;2023-07-24T02:07:34;9.82;;;6.80;;
64297;SDS011;50639;53.270;7.956;2023-07-24T02:10:00;11.57;;;6.85;;
64297;SDS011;50639;53.270;7.956;2023-07-24T02:12:25;10.30;;;6.68;;
64297;SDS011;50639;53.270;7.956;2023-07-24T02:14:51;12.35;;;7.35;;
64297;SDS011;50639;53.270;7.956;2023-07-24T02:17:17;12.13;;;6.88;;
64297;SDS011;50639;53.270;7.956;2023-07-24T02:19:43;9.38;;;6.60;;
64297;SDS011;50639;53.270;7.956;2023-07-24T02:22:11;10.65;;;6.88;;
64297;SDS011;50639;53.270;7.956;2023-07-24T02:24:37;14.65;;;7.25;;
64297;SDS011;50639;53.270;7.956;2023-07-24T02:27:02;10.57;;;7.38;;
64297;SDS011;50639;53.270;7.956;2023-07-24T02:29:30;9.73;;;7.43;;
64297;SDS011;50639;53.270;7.956;2023-07-24T02:31:56;9.02;;;7.13;;
64297;SDS011;50639;53.270;7.956;2023-07-24T02:34:23;10.10;;;7.45;;
64297;SDS011;50639;53.270;7.956;2023-07-24T02:36:52;9.45;;;6.82;;
64297;SDS011;50639;53.270;7.956;2023-07-24T02:39:17;9.82;;;7.70;;
64297;SDS011;50639;53.270;7.956;2023-07-24T02:41:42;9.68;;;6.97;;
64297;SDS011;50639;53.270;7.956;2023-07-24T02:44:08;10.40;;;7.75;;
64297;SDS011;50639;53.270;7.956;2023-07-24T02:46:33;11.90;;;8.23;;
64297;SDS011;50639;53.270;7.956;2023-07-24T02:48:58;14.35;;;8.73;;
64297;SDS011;50639;53.270;7.956;2023-07-24T02:51:24;13.25;;;8.15;;
64297;SDS011;50639;53.270;7.956;2023-07-24T02:53:50;10.27;;;7.95;;
64297;SDS011;50639;53.270;7.956;2023-07-24T02:56:15;11.25;;;8.32;;
64297;SDS011;50639;53.270;7.956;2023-07-24T02:58:41;9.75;;;7.97;;
64297;SDS011;50639;53.270;7.956;2023-07-24T03:01:07;13.73;;;8.38;;
64297;SDS011;50639;53.270;7.956;2023-07-24T03:03:33;10.75;;;7.55;;
64297;SDS011;50639;53.270;7.956;2023-07-24T03:05:58;13.13;;;8.27;;
64297;SDS011;50639;53.270;7.956;2023-07-24T03:08:24;10.30;;;8.32;;
64297;SDS011;50639;53.270;7.956;2023-07-24T03:10:49;11.45;;;8.40;;
64297;SDS011;50639;53.270;7.956;2023-07-24T03:13:15;11.32;;;8.68;;
64297;SDS011;50639;53.270;7.956;2023-07-24T03:15:40;12.77;;;8.93;;
64297;SDS011;50639;53.270;7.956;2023-07-24T03:18:05;9.30;;;7.85;;
64297;SDS011;50639;53.270;7.956;2023-07-24T03:20:31;11.32;;;8.77;;
64297;SDS011;50639;53.270;7.956;2023-07-24T03:22:56;16.15;;;8.25;;
64297;SDS011;50639;53.270;7.956;2023-07-24T03:25:22;13.50;;;8.77;;
64297;SDS011;50639;53.270;7.956;2023-07-24T03:27:48;10.50;;;8.43;;
64297;SDS011;50639;53.270;7.956;2023-07-24T03:30:14;10.38;;;7.68;;
64297;SDS011;50639;53.270;7.956;2023-07-24T03:32:39;12.57;;;9.02;;
64297;SDS011;50639;53.270;7.956;2023-07-24T03:35:05;13.60;;;8.43;;
64297;SDS011;50639;53.270;7.956;2023-07-24T03:37:31;12.07;;;8.38;;
64297;SDS011;50639;53.270;7.956;2023-07-24T03:39:56;10.60;;;8.05;;
64297;SDS011;50639;53.270;7.956;2023-07-24T03:42:25;15.43;;;8.23;;
64297;SDS011;50639;53.270;7.956;2023-07-24T03:44:52;11.15;;;8.18;;
64297;SDS011;50639;53.270;7.956;2023-07-24T03:47:17;9.57;;;7.90;;
64297;SDS011;50639;53.270;7.956;2023-07-24T03:49:43;9.63;;;7.55;;
64297;SDS011;50639;53.270;7.956;2023-07-24T03:52:11;13.88;;;8.18;;
64297;SDS011;50639;53.270;7.956;2023-07-24T03:54:37;9.95;;;7.97;;
64297;SDS011;50639;53.270;7.956;2023-07-24T03:57:02;9.68;;;6.80;;
64297;SDS011;50639;53.270;7.956;2023-07-24T03:59:27;8.90;;;7.22;;
64297;SDS011;50639;53.270;7.956;2023-07-24T04:01:53;14.25;;;7.60;;
64297;SDS011;50639;53.270;7.956;2023-07-24T04:04:18;13.73;;;7.25;;
64297;SDS011;50639;53.270;7.956;2023-07-24T04:06:45;8.45;;;6.88;;
64297;SDS011;50639;53.270;7.956;2023-07-24T04:09:10;13.95;;;7.88;;
64297;SDS011;50639;53.270;7.956;2023-07-24T04:11:42;10.13;;;7.80;;
64297;SDS011;50639;53.270;7.956;2023-07-24T04:14:08;10.00;;;7.25;;
64297;SDS011;50639;53.270;7.956;2023-07-24T04:16:33;8.95;;;6.65;;
64297;SDS011;50639;53.270;7.956;2023-07-24T04:18:58;10.40;;;6.50;;
64297;SDS011;50639;53.270;7.956;2023-07-24T04:21:24;9.07;;;7.20;;
64297;SDS011;50639;53.270;7.956;2023-07-24T04:23:49;7.93;;;6.50;;
64297;SDS011;50639;53.270;7.956;2023-07-24T04:26:14;9.10;;;6.88;;
64297;SDS011;50639;53.270;7.956;2023-07-24T04:28:40;8.90;;;6.78;;
64297;SDS011;50639;53.270;7.956;2023-07-24T04:31:05;8.15;;;6.00;;
64297;SDS011;50639;53.270;7.956;2023-07-24T04:33:30;8.80;;;6.30;;
64297;SDS011;50639;53.270;7.956;2023-07-24T04:35:56;10.30;;;6.75;;
64297;SDS011;50639;53.270;7.956;2023-07-24T04:38:21;8.80;;;6.93;;
64297;SDS011;50639;53.270;7.956;2023-07-24T04:40:47;9.07;;;6.20;;
64297;SDS011;50639;53.270;7.956;2023-07-24T04:43:12;7.85;;;5.63;;
64297;SDS011;50639;53.270;7.956;2023-07-24T04:45:38;8.68;;;6.45;;
64297;SDS011;50639;53.270;7.956;2023-07-24T04:48:03;11.23;;;6.80;;
64297;SDS011;50639;53.270;7.956;2023-07-24T04:50:29;9.48;;;6.00;;
64297;SDS011;50639;53.270;7.956;2023-07-24T04:52:55;9.00;;;6.43;;
64297;SDS011;50639;53.270;7.956;2023-07-24T04:55:21;8.65;;;6.22;;
64297;SDS011;50639;53.270;7.956;2023-07-24T04:57:47;9.73;;;7.32;;
64297;SDS011;50639;53.270;7.956;2023-07-24T05:00:12;11.32;;;6.38;;
64297;SDS011;50639;53.270;7.956;2023-07-24T05:02:37;10.52;;;6.32;;
64297;SDS011;50639;53.270;7.956;2023-07-24T05:05:03;8.50;;;6.13;;
64297;SDS011;50639;53.270;7.956;2023-07-24T05:07:28;10.85;;;6.80;;
64297;SDS011;50639;53.270;7.956;2023-07-24T05:09:54;8.25;;;6.35;;
64297;SDS011;50639;53.270;7.956;2023-07-24T05:12:19;11.70;;;6.10;;
64297;SDS011;50639;53.270;7.956;2023-07-24T05:14:44;8.82;;;6.20;;
64297;SDS011;50639;53.270;7.956;2023-07-24T05:17:10;9.20;;;6.00;;
64297;SDS011;50639;53.270;7.956;2023-07-24T05:19:35;11.32;;;6.20;;
64297;SDS011;50639;53.270;7.956;2023-07-24T05:22:01;10.50;;;6.47;;
64297;SDS011;50639;53.270;7.956;2023-07-24T05:24:28;13.23;;;6.65;;
64297;SDS011;50639;53.270;7.956;2023-07-24T05:26:53;8.18;;;6.07;;
64297;SDS011;50639;53.270;7.956;2023-07-24T05:29:19;9.32;;;6.47;;
64297;SDS011;50639;53.270;7.956;2023-07-24T05:31:44;10.88;;;6.35;;
64297;SDS011;50639;53.270;7.956;2023-07-24T05:34:09;10.65;;;6.55;;
64297;SDS011;50639;53.270;7.956;2023-07-24T05:36:35;8.70;;;6.07;;
64297;SDS011;50639;53.270;7.956;2023-07-24T05:39:00;9.82;;;6.15;;
64297;SDS011;50639;53.270;7.956;2023-07-24T05:41:27;10.00;;;6.53;;
64297;SDS011;50639;53.270;7.956;2023-07-24T05:43:53;8.55;;;5.95;;
64297;SDS011;50639;53.270;7.956;2023-07-24T05:46:26;10.60;;;6.50;;
64297;SDS011;50639;53.270;7.956;2023-07-24T05:48:56;9.13;;;5.80;;
64297;SDS011;50639;53.270;7.956;2023-07-24T05:51:22;8.88;;;6.30;;
64297;SDS011;50639;53.270;7.956;2023-07-24T05:53:49;8.65;;;6.15;;
64297;SDS011;50639;53.270;7.956;2023-07-24T05:56:15;8.32;;;5.97;;
64297;SDS011;50639;53.270;7.956;2023-07-24T05:58:41;8.48;;;5.13;;
64297;SDS011;50639;53.270;7.956;2023-07-24T06:01:09;11.00;;;6.10;;
64297;SDS011;50639;53.270;7.956;2023-07-24T06:03:38;7.88;;;5.32;;
64297;SDS011;50639;53.270;7.956;2023-07-24T06:06:04;10.55;;;6.55;;
64297;SDS011;50639;53.270;7.956;2023-07-24T06:08:43;10.25;;;5.95;;
64297;SDS011;50639;53.270;7.956;2023-07-24T06:11:18;8.73;;;5.47;;
64297;SDS011;50639;53.270;7.956;2023-07-24T06:13:44;9.13;;;5.90;;
64297;SDS011;50639;53.270;7.956;2023-07-24T06:16:09;8.52;;;6.05;;
64297;SDS011;50639;53.270;7.956;2023-07-24T06:18:47;9.52;;;6.18;;
64297;SDS011;50639;53.270;7.956;2023-07-24T06:21:13;9.65;;;6.63;;
64297;SDS011;50639;53.270;7.956;2023-07-24T06:23:38;9.40;;;5.97;;
64297;SDS011;50639;53.270;7.956;2023-07-24T06:26:04;8.20;;;6.50;;
64297;SDS011;50639;53.270;7.956;2023-07-24T06:28:29;10.65;;;6.70;;
64297;SDS011;50639;53.270;7.956;2023-07-24T06:30:55;9.82;;;6.38;;
64297;SDS011;50639;53.270;7.956;2023-07-24T06:33:20;10.23;;;7.05;;
64297;SDS011;50639;53.270;7.956;2023-07-24T06:35:49;11.23;;;7.45;;
64297;SDS011;50639;53.270;7.956;2023-07-24T06:38:15;9.55;;;6.40;;
64297;SDS011;50639;53.270;7.956;2023-07-24T06:40:40;10.60;;;6.63;;
64297;SDS011;50639;53.270;7.956;2023-07-24T06:43:06;10.20;;;7.32;;
64297;SDS011;50639;53.270;7.956;2023-07-24T06:45:31;9.65;;;7.18;;
64297;SDS011;50639;53.270;7.956;2023-07-24T06:47:58;14.13;;;6.93;;
64297;SDS011;50639;53.270;7.956;2023-07-24T06:50:23;10.40;;;7.13;;
64297;SDS011;50639;53.270;7.956;2023-07-24T06:52:49;10.27;;;7.43;;
64297;SDS011;50639;53.270;7.956;2023-07-24T06:55:16;10.20;;;6.53;;
64297;SDS011;50639;53.270;7.956;2023-07-24T06:57:42;10.70;;;7.18;;
64297;SDS011;50639;53.270;7.956;2023-07-24T07:00:07;11.55;;;7.53;;
64297;SDS011;50639;53.270;7.956;2023-07-24T07:02:37;9.88;;;7.28;;
64297;SDS011;50639;53.270;7.956;2023-07-24T07:05:02;10.68;;;7.18;;
64297;SDS011;50639;53.270;7.956;2023-07-24T07:07:28;10.55;;;7.07;;
64297;SDS011;50639;53.270;7.956;2023-07-24T07:09:53;9.77;;;6.63;;
64297;SDS011;50639;53.270;7.956;2023-07-24T07:12:20;13.40;;;8.27;;
64297;SDS011;50639;53.270;7.956;2023-07-24T07:14:46;11.23;;;7.53;;
64297;SDS011;50639;53.270;7.956;2023-07-24T07:17:11;16.30;;;7.70;;
64297;SDS011;50639;53.270;7.956;2023-07-24T07:19:36;11.23;;;7.70;;
64297;SDS011;50639;53.270;7.956;2023-07-24T07:22:02;11.10;;;7.57;;
64297;SDS011;50639;53.270;7.956;2023-07-24T07:24:27;11.25;;;7.75;;
64297;SDS011;50639;53.270;7.956;2023-07-24T07:26:52;10.43;;;7.20;;
64297;SDS011;50639;53.270;7.956;2023-07-24T07:29:18;10.10;;;6.93;;
64297;SDS011;50639;53.270;7.956;2023-07-24T07:31:43;10.70;;;6.72;;
64297;SDS011;50639;53.270;7.956;2023-07-24T07:34:08;11.57;;;7.13;;
64297;SDS011;50639;53.270;7.956;2023-07-24T07:36:34;11.23;;;7.35;;
64297;SDS011;50639;53.270;7.956;2023-07-24T07:39:00;10.63;;;7.30;;
64297;SDS011;50639;53.270;7.956;2023-07-24T07:41:25;10.13;;;7.03;;
64297;SDS011;50639;53.270;7.956;2023-07-24T07:43:50;10.20;;;6.63;;
64297;SDS011;50639;53.270;7.956;2023-07-24T07:46:16;11.63;;;7.35;;
64297;SDS011;50639;53.270;7.956;2023-07-24T07:48:41;13.10;;;8.00;;
64297;SDS011;50639;53.270;7.956;2023-07-24T07:51:07;9.82;;;7.38;;
64297;SDS011;50639;53.270;7.956;2023-07-24T07:53:32;11.40;;;7.37;;
64297;SDS011;50639;53.270;7.956;2023-07-24T07:55:57;14.00;;;7.50;;
64297;SDS011;50639;53.270;7.956;2023-07-24T07:58:25;12.52;;;6.95;;
64297;SDS011;50639;53.270;7.956;2023-07-24T08:00:50;13.43;;;7.70;;
64297;SDS011;50639;53.270;7.956;2023-07-24T08:03:15;11.48;;;7.65;;
64297;SDS011;50639;53.270;7.956;2023-07-24T08:05:41;11.43;;;7.65;;
64297;SDS011;50639;53.270;7.956;2023-07-24T08:08:06;11.70;;;7.37;;
64297;SDS011;50639;53.270;7.956;2023-07-24T08:10:32;12.65;;;7.65;;
64297;SDS011;50639;53.270;7.956;2023-07-24T08:12:57;12.67;;;7.83;;
64297;SDS011;50639;53.270;7.956;2023-07-24T08:15:22;11.80;;;8.30;;
64297;SDS011;50639;53.270;7.956;2023-07-24T08:17:48;11.18;;;7.68;;
64297;SDS011;50639;53.270;7.956;2023-07-24T08:20:13;11.75;;;7.07;;
64297;SDS011;50639;53.270;7.956;2023-07-24T08:22:39;14.77;;;8.10;;
64297;SDS011;50639;53.270;7.956;2023-07-24T08:25:04;13.93;;;8.02;;
64297;SDS011;50639;53.270;7.956;2023-07-24T08:27:30;12.73;;;7.55;;
64297;SDS011;50639;53.270;7.956;2023-07-24T08:29:55;13.32;;;8.10;;
64297;SDS011;50639;53.270;7.956;2023-07-24T08:32:21;12.23;;;8.05;;
64297;SDS011;50639;53.270;7.956;2023-07-24T08:34:46;13.98;;;7.00;;
64297;SDS011;50639;53.270;7.956;2023-07-24T08:37:11;12.23;;;7.75;;
64297;SDS011;50639;53.270;7.956;2023-07-24T08:39:37;12.43;;;7.22;;
64297;SDS011;50639;53.270;7.956;2023-07-24T08:42:10;10.88;;;7.70;;
64297;SDS011;50639;53.270;7.956;2023-07-24T08:44:36;14.73;;;7.65;;
64297;SDS011;50639;53.270;7.956;2023-07-24T08:47:06;12.23;;;8.00;;
64297;SDS011;50639;53.270;7.956;2023-07-24T08:49:34;11.20;;;7.20;;
64297;SDS011;50639;53.270;7.956;2023-07-24T08:51:59;13.85;;;7.20;;
64297;SDS011;50639;53.270;7.956;2023-07-24T08:54:26;11.82;;;6.78;;
64297;SDS011;50639;53.270;7.956;2023-07-24T08:56:52;11.57;;;6.82;;
64297;SDS011;50639;53.270;7.956;2023-07-24T08:59:17;10.98;;;7.03;;
64297;SDS011;50639;53.270;7.956;2023-07-24T09:01:43;12.23;;;7.20;;
64297;SDS011;50639;53.270;7.956;2023-07-24T09:04:08;10.45;;;7.55;;
64297;SDS011;50639;53.270;7.956;2023-07-24T09:06:34;10.88;;;7.82;;
64297;SDS011;50639;53.270;7.956;2023-07-24T09:09:00;11.63;;;7.35;;
64297;SDS011;50639;53.270;7.956;2023-07-24T09:11:29;10.52;;;7.13;;
64297;SDS011;50639;53.270;7.956;2023-07-24T09:13:55;14.68;;;7.57;;
64297;SDS011;50639;53.270;7.956;2023-07-24T09:16:24;12.03;;;6.90;;
64297;SDS011;50639;53.270;7.956;2023-07-24T09:19:01;11.40;;;7.40;;
64297;SDS011;50639;53.270;7.956;2023-07-24T09:21:33;14.10;;;7.78;;
64297;SDS011;50639;53.270;7.956;2023-07-24T09:24:12;13.02;;;7.70;;
64297;SDS011;50639;53.270;7.956;2023-07-24T09:26:48;13.15;;;6.22;;
64297;SDS011;50639;53.270;7.956;2023-07-24T09:29:29;13.18;;;6.65;;
64297;SDS011;50639;53.270;7.956;2023-07-24T09:32:23;10.27;;;7.07;;
64297;SDS011;50639;53.270;7.956;2023-07-24T09:34:53;11.52;;;6.90;;
64297;SDS011;50639;53.270;7.956;2023-07-24T09:37:27;11.00;;;6.75;;
64297;SDS011;50639;53.270;7.956;2023-07-24T09:39:55;11.55;;;7.30;;
64297;SDS011;50639;53.270;7.956;2023-07-24T09:42:33;9.05;;;6.38;;
64297;SDS011;50639;53.270;7.956;2023-07-24T09:45:03;11.07;;;6.38;;
64297;SDS011;50639;53.270;7.956;2023-07-24T09:47:29;11.57;;;7.18;;
64297;SDS011;50639;53.270;7.956;2023-07-24T09:49:56;9.88;;;6.40;;
64297;SDS011;50639;53.270;7.956;2023-07-24T09:52:23;10.75;;;6.70;;
64297;SDS011;50639;53.270;7.956;2023-07-24T09:54:59;11.85;;;6.35;;
64297;SDS011;50639;53.270;7.956;2023-07-24T09:57:26;11.93;;;6.75;;
64297;SDS011;50639;53.270;7.956;2023-07-24T09:59:53;10.55;;;6.07;;
64297;SDS011;50639;53.270;7.956;2023-07-24T10:02:24;12.23;;;7.00;;
64297;SDS011;50639;53.270;7.956;2023-07-24T10:04:50;11.90;;;7.15;;
64297;SDS011;50639;53.270;7.956;2023-07-24T10:07:19;11.73;;;6.95;;
64297;SDS011;50639;53.270;7.956;2023-07-24T10:09:52;10.95;;;6.15;;
64297;SDS011;50639;53.270;7.956;2023-07-24T10:12:20;8.98;;;5.63;;
64297;SDS011;50639;53.270;7.956;2023-07-24T10:14:51;9.90;;;5.85;;
64297;SDS011;50639;53.270;7.956;2023-07-24T10:17:33;8.77;;;6.18;;
64297;SDS011;50639;53.270;7.956;2023-07-24T10:20:02;12.57;;;6.65;;
64297;SDS011;50639;53.270;7.956;2023-07-24T10:24:54;12.43;;;5.90;;
64297;SDS011;50639;53.270;7.956;2023-07-24T10:27:23;13.93;;;5.63;;
64297;SDS011;50639;53.270;7.956;2023-07-24T10:29:58;9.93;;;5.88;;
64297;SDS011;50639;53.270;7.956;2023-07-24T10:32:24;9.02;;;5.20;;
64297;SDS011;50639;53.270;7.956;2023-07-24T10:34:56;12.48;;;6.13;;
64297;SDS011;50639;53.270;7.956;2023-07-24T10:37:30;10.45;;;6.40;;
64297;SDS011;50639;53.270;7.956;2023-07-24T10:39:56;11.27;;;6.22;;
64297;SDS011;50639;53.270;7.956;2023-07-24T10:42:22;10.05;;;6.22;;
64297;SDS011;50639;53.270;7.956;2023-07-24T10:44:47;11.60;;;5.97;;
64297;SDS011;50639;53.270;7.956;2023-07-24T10:47:13;10.30;;;5.77;;
64297;SDS011;50639;53.270;7.956;2023-07-24T10:49:42;12.27;;;5.97;;
64297;SDS011;50639;53.270;7.956;2023-07-24T10:52:07;12.63;;;6.05;;
64297;SDS011;50639;53.270;7.956;2023-07-24T10:54:34;12.27;;;5.30;;
64297;SDS011;50639;53.270;7.956;2023-07-24T10:56:59;9.37;;;5.47;;
64297;SDS011;50639;53.270;7.956;2023-07-24T10:59:39;10.27;;;6.00;;
64297;SDS011;50639;53.270;7.956;2023-07-24T11:02:05;8.32;;;5.57;;
64297;SDS011;50639;53.270;7.956;2023-07-24T11:04:30;9.80;;;6.10;;
64297;SDS011;50639;53.270;7.956;2023-07-24T11:06:56;8.88;;;5.15;;
64297;SDS011;50639;53.270;7.956;2023-07-24T11:09:22;15.93;;;5.70;;
64297;SDS011;50639;53.270;7.956;2023-07-24T11:11:48;12.13;;;5.47;;
64297;SDS011;50639;53.270;7.956;2023-07-24T11:14:16;9.20;;;5.35;;
64297;SDS011;50639;53.270;7.956;2023-07-24T11:16:48;10.35;;;5.20;;
64297;SDS011;50639;53.270;7.956;2023-07-24T11:19:21;7.65;;;4.82;;
64297;SDS011;50639;53.270;7.956;2023-07-24T11:21:47;8.05;;;4.82;;
64297;SDS011;50639;53.270;7.956;2023-07-24T11:24:12;9.37;;;5.00;;
64297;SDS011;50639;53.270;7.956;2023-07-24T11:26:38;11.52;;;5.93;;
64297;SDS011;50639;53.270;7.956;2023-07-24T11:29:10;11.47;;;5.50;;
64297;SDS011;50639;53.270;7.956;2023-07-24T11:31:36;9.88;;;5.25;;
64297;SDS011;50639;53.270;7.956;2023-07-24T11:34:04;8.90;;;4.72;;
64297;SDS011;50639;53.270;7.956;2023-07-24T11:36:29;12.55;;;5.30;;
64297;SDS011;50639;53.270;7.956;2023-07-24T11:38:55;8.27;;;4.80;;
64297;SDS011;50639;53.270;7.956;2023-07-24T11:41:20;9.93;;;5.35;;
64297;SDS011;50639;53.270;7.956;2023-07-24T11:43:50;7.57;;;4.70;;
64297;SDS011;50639;53.270;7.956;2023-07-24T11:46:25;13.98;;;4.57;;
64297;SDS011;50639;53.270;7.956;2023-07-24T11:48:51;8.70;;;5.05;;
64297;SDS011;50639;53.270;7.956;2023-07-24T11:51:18;8.07;;;4.78;;
64297;SDS011;50639;53.270;7.956;2023-07-24T11:53:44;14.88;;;5.25;;
64297;SDS011;50639;53.270;7.956;2023-07-24T11:56:13;8.73;;;4.90;;
64297;SDS011;50639;53.270;7.956;2023-07-24T11:58:38;9.50;;;4.63;;
64297;SDS011;50639;53.270;7.956;2023-07-24T12:01:04;9.00;;;4.90;;
64297;SDS011;50639;53.270;7.956;2023-07-24T12:03:29;10.93;;;5.80;;
64297;SDS011;50639;53.270;7.956;2023-07-24T12:05:55;7.65;;;4.53;;
64297;SDS011;50639;53.270;7.956;2023-07-24T12:08:28;9.65;;;4.43;;
64297;SDS011;50639;53.270;7.956;2023-07-24T12:10:54;5.75;;;4.07;;
64297;SDS011;50639;53.270;7.956;2023-07-24T12:13:19;9.47;;;4.33;;
64297;SDS011;50639;53.270;7.956;2023-07-24T12:15:45;9.40;;;4.78;;
64297;SDS011;50639;53.270;7.956;2023-07-24T12:18:10;9.43;;;5.13;;
64297;SDS011;50639;53.270;7.956;2023-07-24T12:20:35;8.93;;;4.93;;
64297;SDS011;50639;53.270;7.956;2023-07-24T12:23:01;9.52;;;4.70;;
64297;SDS011;50639;53.270;7.956;2023-07-24T12:25:26;8.75;;;4.97;;
64297;SDS011;50639;53.270;7.956;2023-07-24T12:27:52;9.98;;;5.10;;
64297;SDS011;50639;53.270;7.956;2023-07-24T12:30:17;7.63;;;4.55;;
64297;SDS011;50639;53.270;7.956;2023-07-24T12:32:43;8.13;;;4.60;;
64297;SDS011;50639;53.270;7.956;2023-07-24T12:35:09;8.73;;;4.75;;
64297;SDS011;50639;53.270;7.956;2023-07-24T12:37:34;9.82;;;4.95;;
64297;SDS011;50639;53.270;7.956;2023-07-24T12:40:00;7.55;;;4.63;;
64297;SDS011;50639;53.270;7.956;2023-07-24T12:42:25;9.03;;;4.70;;
64297;SDS011;50639;53.270;7.956;2023-07-24T12:44:51;7.22;;;4.70;;
64297;SDS011;50639;53.270;7.956;2023-07-24T12:47:17;8.27;;;4.90;;
64297;SDS011;50639;53.270;7.956;2023-07-24T12:49:42;7.75;;;4.47;;
64297;SDS011;50639;53.270;7.956;2023-07-24T12:52:07;10.52;;;5.18;;
64297;SDS011;50639;53.270;7.956;2023-07-24T12:54:33;8.68;;;4.55;;
64297;SDS011;50639;53.270;7.956;2023-07-24T12:56:58;9.50;;;4.70;;
64297;SDS011;50639;53.270;7.956;2023-07-24T12:59:24;8.93;;;4.80;;
64297;SDS011;50639;53.270;7.956;2023-07-24T13:01:49;9.30;;;4.70;;
64297;SDS011;50639;53.270;7.956;2023-07-24T13:04:15;10.10;;;4.97;;
64297;SDS011;50639;53.270;7.956;2023-07-24T13:06:40;8.48;;;5.05;;
64297;SDS011;50639;53.270;7.956;2023-07-24T13:09:07;7.57;;;4.53;;
64297;SDS011;50639;53.270;7.956;2023-07-24T13:11:32;7.63;;;4.47;;
64297;SDS011;50639;53.270;7.956;2023-07-24T13:13:57;7.17;;;4.73;;
64297;SDS011;50639;53.270;7.956;2023-07-24T13:16:23;8.17;;;4.47;;
64297;SDS011;50639;53.270;7.956;2023-07-24T13:18:48;8.95;;;4.53;;
64297;SDS011;50639;53.270;7.956;2023-07-24T13:21:14;8.00;;;4.60;;
64297;SDS011;50639;53.270;7.956;2023-07-24T13:23:42;10.70;;;4.95;;
64297;SDS011;50639;53.270;7.956;2023-07-24T13:26:08;8.05;;;4.50;;
64297;SDS011;50639;53.270;7.956;2023-07-24T13:28:36;9.20;;;4.80;;
64297;SDS011;50639;53.270;7.956;2023-07-24T13:31:14;10.18;;;5.35;;
64297;SDS011;50639;53.270;7.956;2023-07-24T13:33:40;12.88;;;5.43;;
64297;SDS011;50639;53.270;7.956;2023-07-24T13:36:05;12.23;;;5.43;;
64297;SDS011;50639;53.270;7.956;2023-07-24T13:38:31;9.20;;;3.40;;
64297;SDS011;50639;53.270;7.956;2023-07-24T13:40:57;4.88;;;2.78;;
64297;SDS011;50639;53.270;7.956;2023-07-24T13:43:23;4.75;;;2.85;;
64297;SDS011;50639;53.270;7.956;2023-07-24T13:45:48;5.60;;;3.20;;
64297;SDS011;50639;53.270;7.956;2023-07-24T13:48:13;4.45;;;2.92;;
64297;SDS011;50639;53.270;7.956;2023-07-24T13:50:39;9.60;;;3.23;;
64297;SDS011;50639;53.270;7.956;2023-07-24T13:53:04;7.55;;;3.30;;
64297;SDS011;50639;53.270;7.956;2023-07-24T13:55:29;6.22;;;3.20;;
64297;SDS011;50639;53.270;7.956;2023-07-24T13:57:55;8.20;;;3.63;;
64297;SDS011;50639;53.270;7.956;2023-07-24T14:00:20;4.83;;;3.03;;
64297;SDS011;50639;53.270;7.956;2023-07-24T14:02:46;7.05;;;3.38;;
64297;SDS011;50639;53.270;7.956;2023-07-24T14:05:11;6.93;;;3.70;;
64297;SDS011;50639;53.270;7.956;2023-07-24T14:07:36;6.65;;;3.50;;
64297;SDS011;50639;53.270;7.956;2023-07-24T14:10:02;10.05;;;3.88;;
64297;SDS011;50639;53.270;7.956;2023-07-24T14:12:27;6.32;;;3.75;;
64297;SDS011;50639;53.270;7.956;2023-07-24T14:14:52;8.07;;;3.73;;
64297;SDS011;50639;53.270;7.956;2023-07-24T14:17:18;7.45;;;4.00;;
64297;SDS011;50639;53.270;7.956;2023-07-24T14:19:44;6.80;;;3.87;;
64297;SDS011;50639;53.270;7.956;2023-07-24T14:22:10;6.78;;;3.60;;
64297;SDS011;50639;53.270;7.956;2023-07-24T14:24:35;6.93;;;3.72;;
64297;SDS011;50639;53.270;7.956;2023-07-24T14:27:00;7.40;;;3.85;;
64297;SDS011;50639;53.270;7.956;2023-07-24T14:29:26;6.15;;;3.53;;
64297;SDS011;50639;53.270;7.956;2023-07-24T14:31:52;7.32;;;3.70;;
64297;SDS011;50639;53.270;7.956;2023-07-24T14:34:17;6.90;;;4.20;;
64297;SDS011;50639;53.270;7.956;2023-07-24T14:36:43;5.63;;;3.00;;
64297;SDS011;50639;53.270;7.956;2023-07-24T14:39:09;5.40;;;2.90;;
64297;SDS011;50639;53.270;7.956;2023-07-24T14:41:34;3.87;;;2.47;;